Time;durP1;ratioP1;P1;durP2;ratioP2;P2;SDS_P1;SDS_P2;PMS_P1;PMS_P2;Temp;Humidity;BMP_temperature;BMP_pressure;BME280_temperature;BME280_humidity;BME280_pressure;Samples;Min_cycle;Max_cycle;Signal;HPM_P1;HPM_P2
2023/09/05 00:00:17;;;;;;;5.17;2.50;;;;;14.10;97759.00;;;;4989419;28;20977;-68
2023/09/05 00:03:07;;;;;;;3.37;2.23;;;;;14.20;97754.00;;;;4987288;28;20215;-68
2023/09/05 00:06:01;;;;;;;3.37;2.50;;;;;14.40;97760.00;;;;4987644;28;20207;-68
2023/09/05 00:08:51;;;;;;;2.17;1.97;;;;;14.40;97756.00;;;;4988125;28;20206;-68
2023/09/05 00:11:40;;;;;;;2.80;2.43;;;;;14.30;97760.00;;;;4983944;28;20226;-68
2023/09/05 00:14:29;;;;;;;4.87;1.90;;;;;14.30;97753.00;;;;4970799;28;20659;-68
2023/09/05 00:17:18;;;;;;;5.90;2.20;;;;;14.30;97750.00;;;;4976455;28;20218;-68
2023/09/05 00:20:08;;;;;;;2.30;1.97;;;;;14.10;97745.00;;;;4977420;28;20291;-69
2023/09/05 00:22:57;;;;;;;2.70;2.00;;;;;13.60;97744.00;;;;4976475;28;20230;-68
2023/09/05 00:25:48;;;;;;;4.30;1.90;;;;;13.80;97739.00;;;;4980129;28;20203;-68
2023/09/05 00:28:37;;;;;;;2.37;2.07;;;;;13.40;97732.00;;;;4976110;28;20211;-68
2023/09/05 00:31:26;;;;;;;3.73;3.03;;;;;13.30;97732.00;;;;4969929;28;20215;-69
2023/09/05 00:34:15;;;;;;;3.10;2.40;;;;;13.50;97727.00;;;;4981475;28;20214;-69
2023/09/05 00:37:06;;;;;;;3.03;2.77;;;;;13.40;97727.00;;;;4976056;28;20199;-68
2023/09/05 00:39:55;;;;;;;2.30;2.17;;;;;13.10;97726.00;;;;4973289;28;20667;-68
2023/09/05 00:42:46;;;;;;;3.37;2.63;;;;;13.50;97728.00;;;;4976972;28;20223;-68
2023/09/05 00:45:35;;;;;;;2.90;2.60;;;;;13.80;97719.00;;;;4978622;28;20218;-68
2023/09/05 00:48:27;;;;;;;2.97;2.33;;;;;13.80;97714.00;;;;4981160;28;20207;-68
2023/09/05 00:51:18;;;;;;;2.67;2.47;;;;;13.70;97707.00;;;;4973226;28;20234;-68
2023/09/05 00:54:07;;;;;;;5.63;2.70;;;;;13.00;97704.00;;;;4968341;28;20588;-68
2023/09/05 00:56:57;;;;;;;4.50;3.00;;;;;12.90;97706.00;;;;4979489;28;20204;-68
2023/09/05 00:59:47;;;;;;;5.43;3.20;;;;;12.90;97710.00;;;;4978339;28;20206;-68
2023/09/05 01:02:36;;;;;;;3.67;2.53;;;;;13.10;97710.00;;;;4975816;28;20234;-68
2023/09/05 01:05:28;;;;;;;4.83;2.27;;;;;13.00;97708.00;;;;4972011;28;20210;-68
2023/09/05 01:08:22;;;;;;;7.47;3.07;;;;;13.20;97706.00;;;;4972734;28;20215;-68
2023/09/05 01:11:14;;;;;;;3.00;1.93;;;;;13.00;97714.00;;;;4975339;28;20207;-68
2023/09/05 01:14:03;;;;;;;3.43;2.40;;;;;12.80;97706.00;;;;4991042;28;20674;-68
2023/09/05 01:17:01;;;;;;;4.87;2.30;;;;;13.10;97704.00;;;;4987895;28;20659;-68
2023/09/05 01:19:53;;;;;;;3.23;2.50;;;;;13.10;97702.00;;;;4990292;28;20211;-68
2023/09/05 01:22:50;;;;;;;2.63;2.43;;;;;13.10;97703.00;;;;4999536;28;20233;-69
2023/09/05 01:25:41;;;;;;;4.03;2.80;;;;;12.90;97699.00;;;;4989789;28;20203;-68
2023/09/05 01:28:30;;;;;;;2.90;2.60;;;;;12.60;97689.00;;;;4989922;28;20480;-69
2023/09/05 01:31:19;;;;;;;2.83;2.63;;;;;12.80;97699.00;;;;4989958;28;20225;-68
2023/09/05 01:34:08;;;;;;;6.60;3.00;;;;;13.10;97706.00;;;;4987140;28;20202;-69
2023/09/05 01:36:57;;;;;;;3.37;3.07;;;;;13.00;97706.00;;;;4994264;28;20678;-68
2023/09/05 01:39:46;;;;;;;2.90;2.60;;;;;12.90;97705.00;;;;4996810;28;20674;-68
2023/09/05 01:42:38;;;;;;;3.73;2.63;;;;;12.80;97700.00;;;;4998537;28;20256;-68
2023/09/05 01:45:27;;;;;;;3.07;2.80;;;;;12.70;97701.00;;;;4991197;28;20202;-68
2023/09/05 01:48:16;;;;;;;2.57;2.37;;;;;12.40;97699.00;;;;4998637;28;20202;-68
2023/09/05 01:51:06;;;;;;;2.93;2.63;;;;;12.40;97691.00;;;;4989991;28;20202;-69
2023/09/05 01:53:55;;;;;;;3.67;3.03;;;;;12.50;97691.00;;;;4990446;28;20207;-69
2023/09/05 01:56:44;;;;;;;5.00;2.70;;;;;12.50;97686.00;;;;4986381;28;20206;-68
2023/09/05 01:59:34;;;;;;;5.77;3.03;;;;;12.40;97682.00;;;;4990544;28;20211;-68
2023/09/05 02:02:23;;;;;;;3.80;2.80;;;;;12.10;97691.00;;;;4983764;28;20233;-68
2023/09/05 02:05:12;;;;;;;3.30;3.00;;;;;11.90;97686.00;;;;4987016;28;20216;-68
2023/09/05 02:08:01;;;;;;;3.00;2.30;;;;;12.10;97681.00;;;;4988284;28;20575;-68
2023/09/05 02:10:50;;;;;;;4.27;3.27;;;;;12.00;97674.00;;;;4988470;28;20199;-68
2023/09/05 02:13:39;;;;;;;8.47;2.83;;;;;12.40;97675.00;;;;4989190;28;20666;-68
2023/09/05 02:16:30;;;;;;;2.63;2.43;;;;;12.30;97674.00;;;;4991892;28;20202;-68
2023/09/05 02:19:20;;;;;;;5.20;3.57;;;;;12.30;97671.00;;;;4990230;28;20199;-68
2023/09/05 02:22:09;;;;;;;4.27;2.70;;;;;12.60;97673.00;;;;4989313;28;20227;-68
2023/09/05 02:25:00;;;;;;;4.37;2.90;;;;;12.40;97664.00;;;;5002955;28;20697;-68
2023/09/05 02:27:50;;;;;;;6.33;2.53;;;;;12.10;97659.00;;;;4994823;28;20207;-68
2023/09/05 02:30:43;;;;;;;3.23;2.90;;;;;12.10;97663.00;;;;4994284;28;20211;-68
2023/09/05 02:33:36;;;;;;;3.73;3.03;;;;;12.40;97662.00;;;;4990042;28;20213;-68
2023/09/05 02:36:25;;;;;;;6.30;2.80;;;;;12.60;97658.00;;;;4995231;28;20205;-68
2023/09/05 02:39:14;;;;;;;2.53;2.33;;;;;12.60;97672.00;;;;4989981;28;20210;-68
2023/09/05 02:42:05;;;;;;;5.20;3.07;;;;;12.50;97672.00;;;;4987496;28;20226;-68
2023/09/05 02:44:54;;;;;;;3.50;2.93;;;;;12.40;97667.00;;;;4995181;28;20205;-68
2023/09/05 02:47:43;;;;;;;3.73;2.77;;;;;12.10;97665.00;;;;4989115;28;20211;-68
2023/09/05 02:50:33;;;;;;;3.97;3.53;;;;;12.00;97661.00;;;;4984737;28;20209;-68
2023/09/05 02:53:22;;;;;;;5.03;2.53;;;;;11.80;97663.00;;;;4987453;28;20206;-68
2023/09/05 02:56:13;;;;;;;2.60;2.40;;;;;11.90;97677.00;;;;4984448;28;20221;-68
2023/09/05 02:59:02;;;;;;;4.37;2.97;;;;;11.80;97672.00;;;;4988344;28;20198;-68
2023/09/05 03:01:51;;;;;;;4.17;3.20;;;;;12.10;97680.00;;;;4986625;28;20230;-68
2023/09/05 03:04:40;;;;;;;4.03;2.70;;;;;12.00;97677.00;;;;4988248;28;20195;-68
2023/09/05 03:07:31;;;;;;;4.13;3.70;;;;;11.90;97671.00;;;;4989078;28;20198;-69
2023/09/05 03:10:20;;;;;;;3.20;2.90;;;;;11.70;97673.00;;;;4988323;28;20213;-68
2023/09/05 03:13:09;;;;;;;3.17;2.67;;;;;11.60;97674.00;;;;4988900;28;20610;-69
2023/09/05 03:15:58;;;;;;;3.93;3.30;;;;;11.40;97677.00;;;;4987463;28;20596;-68
2023/09/05 03:18:47;;;;;;;5.13;3.27;;;;;11.20;97683.00;;;;4988241;28;20203;-68
2023/09/05 03:21:37;;;;;;;3.70;3.20;;;;;11.90;97685.00;;;;4988144;28;20226;-68
2023/09/05 03:24:28;;;;;;;4.83;2.87;;;;;11.90;97682.00;;;;4992999;28;20218;-68
2023/09/05 03:27:17;;;;;;;4.33;3.20;;;;;11.90;97680.00;;;;4987692;28;20207;-68
2023/09/05 03:30:07;;;;;;;2.90;2.57;;;;;12.00;97683.00;;;;4987425;28;20202;-68
2023/09/05 03:32:56;;;;;;;3.53;2.67;;;;;12.20;97684.00;;;;4987893;28;20226;-68
2023/09/05 03:35:45;;;;;;;6.37;2.60;;;;;12.20;97686.00;;;;4986924;28;20217;-68
2023/09/05 03:38:34;;;;;;;3.20;2.90;;;;;12.10;97680.00;;;;4991158;28;20222;-68
2023/09/05 03:41:25;;;;;;;4.80;3.07;;;;;11.80;97683.00;;;;4988973;28;20706;-68
2023/09/05 03:44:16;;;;;;;5.67;3.37;;;;;11.70;97683.00;;;;4988443;28;20202;-68
2023/09/05 03:47:05;;;;;;;3.47;2.73;;;;;11.60;97678.00;;;;4987378;28;20211;-68
2023/09/05 03:49:54;;;;;;;3.27;2.80;;;;;11.50;97697.00;;;;4989452;28;20205;-68
2023/09/05 03:52:44;;;;;;;6.30;2.80;;;;;11.30;97689.00;;;;4987032;28;20229;-69
2023/09/05 03:55:34;;;;;;;2.97;2.20;;;;;11.20;97690.00;;;;4987923;28;20199;-68
2023/09/05 03:58:24;;;;;;;4.37;3.13;;;;;11.30;97693.00;;;;4983125;28;20210;-68
2023/09/05 04:01:14;;;;;;;3.70;2.83;;;;;11.60;97703.00;;;;4986680;28;20682;-68
2023/09/05 04:04:05;;;;;;;4.40;3.57;;;;;11.70;97693.00;;;;4986781;28;20229;-68
2023/09/05 04:06:54;;;;;;;3.43;2.70;;;;;11.70;97700.00;;;;4994425;28;20225;-68
2023/09/05 04:09:42;;;;;;;4.33;2.90;;;;;11.50;97711.00;;;;4984714;28;20581;-69
2023/09/05 04:12:31;;;;;;;3.93;3.23;;;;;11.50;97711.00;;;;5006753;23;20621;-83
2023/09/05 04:15:23;;;;;;;3.63;2.67;;;;;11.60;97711.00;;;;5012579;28;20211;-83
2023/09/05 04:18:12;;;;;;;3.77;2.67;;;;;11.90;97719.00;;;;5004991;28;20207;-82
2023/09/05 04:21:01;;;;;;;5.70;3.73;;;;;11.70;97715.00;;;;5019899;28;20232;-83
2023/09/05 04:23:50;;;;;;;3.57;2.77;;;;;11.50;97720.00;;;;5031258;28;20228;-82
2023/09/05 04:26:39;;;;;;;3.93;3.13;;;;;11.30;97719.00;;;;5032464;28;20469;-82
2023/09/05 04:29:28;;;;;;;5.93;2.80;;;;;11.30;97724.00;;;;5031799;28;20384;-82
2023/09/05 04:32:27;;;;;;;3.83;2.97;;;;;11.20;97714.00;;;;5030874;28;20225;-82
2023/09/05 04:35:16;;;;;;;4.27;3.80;;;;;11.10;97719.00;;;;5024642;28;20400;-82
2023/09/05 04:38:05;;;;;;;4.82;3.33;;;;;11.10;97721.00;;;;5032783;28;20403;-82
2023/09/05 04:40:54;;;;;;;4.93;2.77;;;;;11.00;97721.00;;;;5035435;28;20221;-83
2023/09/05 04:43:43;;;;;;;4.77;3.27;;;;;11.00;97726.00;;;;5032445;28;20621;-82
2023/09/05 04:46:37;;;;;;;5.27;3.00;;;;;10.80;97726.00;;;;5033357;28;20221;-82
2023/09/05 04:49:28;;;;;;;3.67;2.97;;;;;11.10;97722.00;;;;5034614;28;20225;-82
2023/09/05 04:52:18;;;;;;;3.90;2.57;;;;;11.30;97723.00;;;;5032204;28;20229;-82
2023/09/05 04:55:08;;;;;;;6.27;3.10;;;;;11.20;97726.00;;;;5029328;28;20213;-82
2023/09/05 04:57:57;;;;;;;9.53;3.00;;;;;11.30;97729.00;;;;5026098;28;20213;-82
2023/09/05 05:00:47;;;;;;;3.47;3.17;;;;;11.60;97732.00;;;;5030166;28;20236;-82
2023/09/05 05:03:36;;;;;;;3.27;2.97;;;;;12.00;97727.00;;;;5032447;28;20236;-83
2023/09/05 05:06:28;;;;;;;4.07;3.00;;;;;11.80;97726.00;;;;5028969;28;20205;-82
2023/09/05 05:09:17;;;;;;;3.57;2.80;;;;;11.30;97726.00;;;;5032406;28;20201;-82
2023/09/05 05:12:07;;;;;;;5.00;2.93;;;;;11.50;97738.00;;;;5030387;28;20233;-83
2023/09/05 05:14:57;;;;;;;2.90;2.67;;;;;11.20;97731.00;;;;5033647;28;20221;-82
2023/09/05 05:17:46;;;;;;;3.37;3.07;;;;;11.50;97732.00;;;;5029530;28;20217;-83
2023/09/05 05:20:35;;;;;;;4.37;2.90;;;;;11.60;97728.00;;;;5034818;28;20229;-82
2023/09/05 05:23:26;;;;;;;4.40;3.50;;;;;12.10;97726.00;;;;5033707;28;20733;-83
2023/09/05 05:26:15;;;;;;;9.33;3.53;;;;;12.10;97735.00;;;;5037695;28;20198;-84
2023/09/05 05:29:04;;;;;;;4.83;3.07;;;;;12.20;97721.00;;;;5035908;28;20870;-83
2023/09/05 05:31:53;;;;;;;4.87;3.23;;;;;12.30;97723.00;;;;5032278;28;20721;-81
2023/09/05 05:34:43;;;;;;;4.50;3.43;;;;;12.20;97723.00;;;;5023739;28;20221;-82
2023/09/05 05:37:32;;;;;;;4.50;3.30;;;;;12.30;97728.00;;;;5026019;28;20198;-83
2023/09/05 05:40:23;;;;;;;4.03;3.47;;;;;12.50;97747.00;;;;5033691;28;20229;-83
2023/09/05 05:43:12;;;;;;;4.57;3.27;;;;;12.30;97753.00;;;;5031347;28;20217;-83
2023/09/05 05:46:01;;;;;;;4.30;3.60;;;;;12.70;97750.00;;;;5033227;28;20588;-82
2023/09/05 05:48:51;;;;;;;5.43;3.93;;;;;13.40;97748.00;;;;5030125;28;20220;-84
2023/09/05 05:51:41;;;;;;;5.07;4.00;;;;;13.90;97750.00;;;;5027959;28;20227;-83
2023/09/05 05:54:30;;;;;;;7.20;3.83;;;;;13.90;97755.00;;;;5032128;28;20193;-83
2023/09/05 05:57:20;;;;;;;5.17;4.33;;;;;13.80;97757.00;;;;5027294;28;20213;-80
2023/09/05 06:00:10;;;;;;;6.23;3.80;;;;;13.20;97748.00;;;;5028406;28;20205;-82
2023/09/05 06:02:59;;;;;;;4.37;3.93;;;;;13.00;97757.00;;;;5028543;28;20618;-81
2023/09/05 06:05:49;;;;;;;3.03;2.70;;;;;13.30;97755.00;;;;5030554;28;20760;-81
2023/09/05 06:08:38;;;;;;;5.20;3.30;;;;;13.40;97754.00;;;;5023023;28;20213;-81
2023/09/05 06:11:27;;;;;;;4.53;3.00;;;;;13.30;97754.00;;;;5031933;28;20221;-82
2023/09/05 06:14:17;;;;;;;7.07;2.97;;;;;13.00;97749.00;;;;5028205;28;20197;-80
2023/09/05 06:17:06;;;;;;;6.60;3.47;;;;;12.90;97768.00;;;;5025209;28;20599;-81
2023/09/05 06:19:55;;;;;;;8.57;3.83;;;;;13.10;97757.00;;;;5028608;28;20565;-80
2023/09/05 06:22:47;;;;;;;7.00;3.70;;;;;13.50;97768.00;;;;5026629;28;20209;-81
2023/09/05 06:25:37;;;;;;;6.53;4.60;;;;;14.30;97774.00;;;;5013831;28;20216;-80
2023/09/05 06:28:26;;;;;;;5.87;4.43;;;;;14.70;97772.00;;;;5033298;28;20552;-81
2023/09/05 06:31:16;;;;;;;7.50;4.87;;;;;15.00;97784.00;;;;5025847;28;20599;-80
2023/09/05 06:34:05;;;;;;;9.73;4.47;;;;;15.50;97761.00;;;;5029392;28;21595;-82
2023/09/05 06:36:54;;;;;;;5.27;4.17;;;;;15.90;97767.00;;;;5031214;28;20209;-80
2023/09/05 06:39:43;;;;;;;6.10;4.30;;;;;15.80;97768.00;;;;5027631;28;20197;-81
2023/09/05 06:42:33;;;;;;;8.67;4.40;;;;;15.70;97767.00;;;;5024427;28;20209;-81
2023/09/05 06:45:22;;;;;;;8.30;4.87;;;;;15.70;97767.00;;;;5026177;28;20240;-82
2023/09/05 06:48:12;;;;;;;7.17;3.90;;;;;15.50;97757.00;;;;5029232;28;20216;-81
2023/09/05 06:51:01;;;;;;;8.00;4.20;;;;;15.50;97765.00;;;;5029385;28;20227;-80
2023/09/05 06:53:50;;;;;;;8.10;4.80;;;;;15.50;97772.00;;;;5024572;28;20205;-80
2023/09/05 06:56:39;;;;;;;11.20;4.00;;;;;15.50;97770.00;;;;5023953;28;20569;-83
2023/09/05 06:59:29;;;;;;;6.80;4.73;;;;;15.80;97774.00;;;;5023223;28;20419;-81
2023/09/05 07:02:18;;;;;;;4.90;4.23;;;;;15.80;97770.00;;;;5025563;28;20222;-80
2023/09/05 07:05:09;;;;;;;6.13;4.27;;;;;16.00;97769.00;;;;5022636;28;20229;-80
2023/09/05 07:07:58;;;;;;;7.73;4.10;;;;;15.80;97766.00;;;;5024954;28;20208;-81
2023/09/05 07:10:47;;;;;;;5.90;3.90;;;;;16.10;97771.00;;;;5025924;28;20229;-79
2023/09/05 07:13:36;;;;;;;11.77;4.50;;;;;16.40;97775.00;;;;5029169;28;20213;-81
2023/09/05 07:16:26;;;;;;;11.60;3.90;;;;;16.80;97786.00;;;;5030686;28;20229;-81
2023/09/05 07:19:15;;;;;;;6.43;3.60;;;;;17.30;97787.00;;;;5031256;28;20201;-82
2023/09/05 07:22:05;;;;;;;5.90;4.63;;;;;17.50;97777.00;;;;5024576;28;20686;-80
2023/09/05 07:24:54;;;;;;;9.03;3.47;;;;;17.70;97788.00;;;;5026354;28;20221;-80
2023/09/05 07:27:43;;;;;;;12.47;4.57;;;;;18.10;97796.00;;;;5021880;28;20216;-80
2023/09/05 07:30:33;;;;;;;5.87;3.77;;;;;18.50;97803.00;;;;5023619;28;20594;-81
2023/09/05 07:33:22;;;;;;;8.10;3.77;;;;;18.60;97805.00;;;;5025681;28;20326;-80
2023/09/05 07:36:11;;;;;;;10.00;4.40;;;;;18.90;97803.00;;;;5027743;28;20599;-82
2023/09/05 07:39:04;;;;;;;3.97;3.47;;;;;19.10;97807.00;;;;5028613;28;20205;-80
2023/09/05 07:41:53;;;;;;;5.73;4.10;;;;;19.20;97803.00;;;;5024722;28;20225;-80
2023/09/05 07:44:42;;;;;;;5.07;3.90;;;;;19.30;97797.00;;;;5026444;28;20226;-82
2023/09/05 07:47:33;;;;;;;8.70;3.67;;;;;19.40;97796.00;;;;5017851;28;20689;-81
2023/09/05 07:50:22;;;;;;;5.43;3.70;;;;;19.90;97792.00;;;;5023812;28;20240;-81
2023/09/05 07:53:11;;;;;;;6.07;4.37;;;;;20.10;97794.00;;;;5021585;28;20212;-80
2023/09/05 07:56:02;;;;;;;6.27;3.90;;;;;20.20;97798.00;;;;5027472;28;20204;-81
2023/09/05 07:58:51;;;;;;;8.13;3.40;;;;;20.30;97801.00;;;;5026263;28;20216;-81
2023/09/05 08:01:40;;;;;;;6.67;3.40;;;;;20.40;97804.00;;;;5018810;28;20724;-81
2023/09/05 08:04:29;;;;;;;5.30;3.43;;;;;20.80;97800.00;;;;5023567;28;20236;-81
2023/09/05 08:07:18;;;;;;;10.70;4.23;;;;;20.80;97808.00;;;;5024863;28;20209;-82
2023/09/05 08:10:08;;;;;;;6.83;3.67;;;;;21.10;97809.00;;;;5026198;28;20205;-81
2023/09/05 08:12:59;;;;;;;5.47;3.60;;;;;21.30;97816.00;;;;5024936;28;20213;-81
2023/09/05 08:15:48;;;;;;;6.83;3.80;;;;;21.30;97815.00;;;;5026542;28;20724;-81
2023/09/05 08:18:37;;;;;;;8.60;3.83;;;;;21.30;97807.00;;;;5026849;28;20202;-81
2023/09/05 08:21:26;;;;;;;8.33;3.67;;;;;21.80;97811.00;;;;5028239;28;20232;-81
2023/09/05 08:24:15;;;;;;;4.77;3.27;;;;;21.90;97810.00;;;;5024824;28;20209;-81
2023/09/05 08:27:05;;;;;;;7.30;4.20;;;;;22.10;97808.00;;;;5024318;28;20206;-83
2023/09/05 08:29:56;;;;;;;8.43;3.60;;;;;22.40;97799.00;;;;5025505;28;20205;-82
2023/09/05 08:32:46;;;;;;;4.97;3.33;;;;;22.70;97804.00;;;;5024881;28;20216;-82
2023/09/05 08:35:38;;;;;;;4.10;3.33;;;;;22.80;97808.00;;;;5027642;28;20209;-83
2023/09/05 08:38:27;;;;;;;6.70;3.43;;;;;23.00;97803.00;;;;5020877;28;20209;-81
2023/09/05 08:41:16;;;;;;;5.53;3.43;;;;;23.10;97797.00;;;;5022237;28;20232;-82
2023/09/05 08:44:06;;;;;;;4.93;3.27;;;;;22.20;97806.00;;;;5031516;28;20205;-81
2023/09/05 08:46:56;;;;;;;4.53;3.00;;;;;22.10;97798.00;;;;5031553;28;20205;-82
2023/09/05 08:49:45;;;;;;;4.27;2.67;;;;;22.10;97792.00;;;;5032070;28;20206;-82
2023/09/05 08:52:37;;;;;;;3.80;3.40;;;;;22.50;97792.00;;;;5028204;28;20209;-81
2023/09/05 08:55:26;;;;;;;3.63;3.33;;;;;22.20;97781.00;;;;5029858;28;20197;-81
2023/09/05 08:58:16;;;;;;;3.13;2.70;;;;;22.60;97788.00;;;;5033200;28;20280;-83
2023/09/05 09:01:05;;;;;;;4.00;3.00;;;;;23.30;97804.00;;;;5031978;28;20746;-84
2023/09/05 09:03:57;;;;;;;5.20;3.20;;;;;22.70;97782.00;;;;5032060;28;20214;-83
2023/09/05 09:06:46;;;;;;;6.73;3.70;;;;;22.40;97777.00;;;;5031198;28;20247;-83
2023/09/05 09:09:36;;;;;;;7.07;3.00;;;;;22.40;97780.00;;;;5036108;28;20205;-83
2023/09/05 09:12:29;;;;;;;3.93;2.77;;;;;22.70;97767.00;;;;5038857;28;20738;-82
2023/09/05 09:15:18;;;;;;;3.63;2.63;;;;;22.50;97761.00;;;;5031724;28;20206;-82
2023/09/05 09:18:12;;;;;;;4.87;3.80;;;;;22.80;97752.00;;;;5034132;28;20634;-82
2023/09/05 09:21:05;;;;;;;4.80;3.07;;;;;22.70;97743.00;;;;5035206;28;20238;-82
2023/09/05 09:23:59;;;;;;;2.83;2.50;;;;;22.90;97742.00;;;;5036930;28;20545;-82
2023/09/05 09:26:48;;;;;;;4.10;2.47;;;;;23.00;97737.00;;;;5032871;28;20225;-83
2023/09/05 09:29:41;;;;;;;4.07;2.77;;;;;23.40;97734.00;;;;5032857;28;20197;-82
2023/09/05 09:32:30;;;;;;;3.53;2.83;;;;;23.80;97733.00;;;;5035437;28;20260;-82
2023/09/05 09:35:19;;;;;;;4.07;2.90;;;;;24.50;97736.00;;;;5028943;28;20565;-83
2023/09/05 09:38:13;;;;;;;2.90;2.60;;;;;24.20;97737.00;;;;5031726;28;20224;-84
2023/09/05 09:41:02;;;;;;;2.87;2.57;;;;;24.10;97730.00;;;;5034244;28;20232;-82
2023/09/05 09:43:56;;;;;;;4.97;3.03;;;;;24.50;97725.00;;;;5034010;28;20224;-82
2023/09/05 09:46:45;;;;;;;3.17;2.30;;;;;24.00;97721.00;;;;5033991;28;20264;-84
2023/09/05 09:49:37;;;;;;;4.33;2.80;;;;;24.80;97724.00;;;;5036613;28;20206;-82
2023/09/05 09:52:27;;;;;;;2.73;2.53;;;;;24.70;97713.00;;;;5030496;28;20705;-82
2023/09/05 09:55:18;;;;;;;4.93;2.27;;;;;24.20;97713.00;;;;5034621;28;20228;-83
2023/09/05 09:58:10;;;;;;;5.30;3.00;;;;;23.90;97704.00;;;;5036978;28;20212;-82
2023/09/05 10:01:00;;;;;;;4.67;2.30;;;;;24.10;97711.00;;;;5031060;28;20236;-82
2023/09/05 10:03:50;;;;;;;3.30;2.83;;;;;24.90;97716.00;;;;5031375;28;20718;-83
2023/09/05 10:06:39;;;;;;;3.40;2.40;;;;;24.70;97703.00;;;;5031493;28;20225;-82
2023/09/05 10:09:29;;;;;;;4.23;2.97;;;;;24.50;97693.00;;;;5031383;28;20205;-82
2023/09/05 10:12:21;;;;;;;3.23;2.67;;;;;24.50;97691.00;;;;5032372;28;20237;-81
2023/09/05 10:15:13;;;;;;;4.50;3.03;;;;;24.30;97671.00;;;;5023158;28;20205;-81
2023/09/05 10:18:03;;;;;;;3.40;2.67;;;;;24.20;97684.00;;;;5023975;28;20202;-82
2023/09/05 10:20:54;;;;;;;3.30;2.27;;;;;24.70;97670.00;;;;5028070;28;20690;-82
2023/09/05 10:23:43;;;;;;;4.63;2.73;;;;;25.10;97668.00;;;;5024381;28;20205;-82
2023/09/05 10:26:33;;;;;;;3.13;2.83;;;;;25.60;97673.00;;;;5021739;28;20225;-82
2023/09/05 10:29:42;;;;;;;3.93;2.50;;;;;25.90;97666.00;;;;5027832;28;20205;-82
2023/09/05 10:32:32;;;;;;;4.40;2.67;;;;;25.70;97660.00;;;;5035832;28;20201;-82
2023/09/05 10:35:22;;;;;;;3.50;2.77;;;;;26.90;97651.00;;;;5029446;28;20205;-81
2023/09/05 10:38:12;;;;;;;4.33;2.80;;;;;27.60;97660.00;;;;5026311;28;20583;-82
2023/09/05 10:41:01;;;;;;;4.83;2.30;;;;;28.30;97653.00;;;;5026661;28;20594;-82
2023/09/05 10:43:55;;;;;;;3.40;2.30;;;;;28.70;97647.00;;;;5023803;28;20198;-83
2023/09/05 10:46:50;;;;;;;3.17;2.87;;;;;28.60;97646.00;;;;5028522;28;20445;-82
2023/09/05 10:49:46;;;;;;;2.43;2.10;;;;;29.10;97636.00;;;;5027592;28;20205;-83
2023/09/05 10:52:35;;;;;;;3.10;2.50;;;;;29.20;97635.00;;;;5028364;28;20210;-82
2023/09/05 10:55:44;;;;;;;2.87;2.40;;;;;28.80;97631.00;;;;5027604;28;20212;-83
2023/09/05 10:58:42;;;;;;;3.97;2.43;;;;;29.20;97626.00;;;;5025624;28;20597;-83
2023/09/05 11:01:56;;;;;;;4.77;2.30;;;;;29.80;97616.00;;;;5023569;28;20223;-82
2023/09/05 11:04:46;;;;;;;3.40;2.53;;;;;30.20;97623.00;;;;5018094;28;20216;-82
2023/09/05 11:07:42;;;;;;;2.60;2.33;;;;;30.10;97625.00;;;;5021363;28;20907;-83
2023/09/05 11:10:34;;;;;;;2.97;2.67;;;;;28.90;97623.00;;;;5028043;28;20232;-83
2023/09/05 11:13:23;;;;;;;4.23;2.50;;;;;27.50;97612.00;;;;5024413;28;20237;-81
2023/09/05 11:16:12;;;;;;;4.03;1.77;;;;;27.40;97603.00;;;;5027933;28;20202;-81
2023/09/05 11:19:03;;;;;;;3.00;2.30;;;;;27.20;97606.00;;;;5027542;28;20204;-81
2023/09/05 11:21:52;;;;;;;2.47;2.13;;;;;27.40;97597.00;;;;5029287;28;20219;-81
2023/09/05 11:24:45;;;;;;;2.77;2.00;;;;;28.40;97603.00;;;;5022382;28;20204;-82
2023/09/05 11:27:34;;;;;;;5.10;2.97;;;;;28.20;97598.00;;;;5017919;28;20218;-82
2023/09/05 11:30:24;;;;;;;2.73;2.37;;;;;29.20;97606.00;;;;5018898;28;20607;-81
2023/09/05 11:33:15;;;;;;;2.77;2.40;;;;;30.40;97608.00;;;;5027679;28;20568;-83
2023/09/05 11:36:07;;;;;;;4.50;2.30;;;;;29.30;97590.00;;;;5026588;28;20285;-82
2023/09/05 11:38:57;;;;;;;3.13;2.10;;;;;27.50;97592.00;;;;5034449;28;20221;-82
2023/09/05 11:41:46;;;;;;;3.67;2.57;;;;;28.90;97589.00;;;;5032773;28;20707;-82
2023/09/05 11:44:38;;;;;;;3.03;2.17;;;;;30.20;97592.00;;;;5029824;28;20679;-82
2023/09/05 11:47:28;;;;;;;4.17;2.40;;;;;31.60;97595.00;;;;5025725;28;20233;-81
2023/09/05 11:50:18;;;;;;;3.10;2.50;;;;;29.70;97590.00;;;;5030949;28;20206;-83
2023/09/05 11:53:10;;;;;;;2.63;2.42;;;;;30.70;97585.00;;;;5025976;28;20205;-84
2023/09/05 11:55:59;;;;;;;3.70;2.93;;;;;30.00;97578.00;;;;5021929;28;20593;-83
2023/09/05 11:58:48;;;;;;;3.42;2.60;;;;;29.40;97583.00;;;;5029798;28;20204;-86
2023/09/05 12:01:38;;;;;;;3.43;2.17;;;;;31.80;97587.00;;;;5029546;28;20239;-83
2023/09/05 12:04:27;;;;;;;2.58;2.38;;;;;32.10;97587.00;;;;5028023;28;20205;-84
2023/09/05 12:07:16;;;;;;;3.35;2.45;;;;;32.30;97581.00;;;;5026159;28;20254;-83
2023/09/05 12:10:09;;;;;;;3.22;2.13;;;;;31.20;97574.00;;;;5030584;28;20200;-84
2023/09/05 12:13:01;;;;;;;3.78;3.05;;;;;31.80;97577.00;;;;5030764;28;20678;-85
2023/09/05 12:15:50;;;;;;;4.30;2.53;;;;;32.60;97570.00;;;;5039649;28;20213;-85
2023/09/05 12:18:39;;;;;;;5.18;2.80;;;;;33.50;97569.00;;;;5030661;28;20669;-84
2023/09/05 12:21:41;;;;;;;5.18;2.35;;;;;33.20;97571.00;;;;5033863;28;20313;-85
2023/09/05 12:24:31;;;;;;;3.03;2.72;;;;;31.00;97563.00;;;;5031764;28;20290;-84
2023/09/05 12:27:28;;;;;;;4.20;2.35;;;;;32.90;97565.00;;;;5032483;28;20224;-85
2023/09/05 12:30:28;;;;;;;2.55;2.30;;;;;33.20;97574.00;;;;5028451;28;20197;-84
2023/09/05 12:33:18;;;;;;;4.32;2.65;;;;;32.70;97556.00;;;;5033391;28;20208;-85
2023/09/05 12:36:07;;;;;;;4.70;2.45;;;;;33.40;97549.00;;;;5027742;28;20208;-85
2023/09/05 12:38:56;;;;;;;2.13;1.95;;;;;32.70;97544.00;;;;5033782;28;20200;-84
2023/09/05 12:41:46;;;;;;;5.30;3.00;;;;;33.20;97546.00;;;;5027726;28;20236;-84
2023/09/05 12:44:36;;;;;;;2.28;2.03;;;;;32.00;97540.00;;;;5028426;28;20206;-84
2023/09/05 12:47:25;;;;;;;2.78;2.22;;;;;32.20;97544.00;;;;5025389;28;20221;-83
2023/09/05 12:50:15;;;;;;;3.15;2.45;;;;;32.70;97538.00;;;;5027152;28;20197;-84
2023/09/05 12:53:05;;;;;;;3.25;2.45;;;;;32.60;97537.00;;;;5028443;28;20205;-83
2023/09/05 12:55:56;;;;;;;3.50;1.73;;;;;33.40;97534.00;;;;5030715;28;20204;-84
2023/09/05 12:58:45;;;;;;;2.58;2.20;;;;;34.10;97528.00;;;;5033556;28;20559;-84
2023/09/05 13:01:35;;;;;;;7.47;2.70;;;;;34.20;97535.00;;;;5031561;28;20224;-83
2023/09/05 13:04:24;;;;;;;2.45;2.25;;;;;32.70;97534.00;;;;5025174;28;20209;-83
2023/09/05 13:07:13;;;;;;;2.47;1.67;;;;;33.50;97539.00;;;;5033093;28;20200;-84
2023/09/05 13:10:03;;;;;;;3.58;2.13;;;;;34.20;97536.00;;;;5034193;28;20200;-83
2023/09/05 13:12:52;;;;;;;4.00;1.90;;;;;35.00;97530.00;;;;5027975;28;20220;-84
2023/09/05 13:15:43;;;;;;;5.82;1.88;;;;;34.00;97532.00;;;;5026156;28;20592;-83
2023/09/05 13:18:34;;;;;;;3.15;2.15;;;;;33.80;97540.00;;;;5031402;28;20576;-85
2023/09/05 13:21:23;;;;;;;2.42;1.77;;;;;32.80;97533.00;;;;5049262;28;20232;-81
2023/09/05 13:24:12;;;;;;;2.22;2.03;;;;;35.00;97518.00;;;;5045855;28;20228;-84
2023/09/05 13:27:01;;;;;;;4.10;2.58;;;;;35.00;97517.00;;;;5040915;28;20204;-84
2023/09/05 13:29:50;;;;;;;3.47;2.17;;;;;35.00;97517.00;;;;5032110;28;20216;-84
2023/09/05 13:32:39;;;;;;;2.65;1.75;;;;;36.10;97519.00;;;;5043150;28;20517;-84
2023/09/05 13:35:31;;;;;;;3.72;2.08;;;;;36.00;97511.00;;;;5042544;28;20204;-84
2023/09/05 13:38:20;;;;;;;1.92;1.83;;;;;36.50;97517.00;;;;5036452;28;20252;-85
2023/09/05 13:41:09;;;;;;;2.50;1.90;;;;;36.80;97517.00;;;;5038595;28;20225;-84
2023/09/05 13:44:00;;;;;;;3.85;2.08;;;;;36.60;97521.00;;;;5036530;28;20224;-85
2023/09/05 13:46:51;;;;;;;1.75;1.65;;;;;37.00;97503.00;;;;5036471;28;20197;-84
2023/09/05 13:49:39;;;;;;;2.50;2.00;;;33.80;52.60;36.90;97516.00;;;;5035755;28;20205;-85
2023/09/05 13:52:29;;;;;;;2.03;1.80;;;33.80;53.00;37.30;97501.00;;;;5032111;28;20198;-84
2023/09/05 13:55:18;;;;;;;3.28;1.88;;;34.00;52.40;36.00;97516.00;;;;5033999;28;20280;-85
2023/09/05 13:58:08;;;;;;;2.25;1.95;;;34.10;52.60;34.20;97510.00;;;;5039589;28;20225;-84
2023/09/05 14:00:57;;;;;;;2.30;1.88;;;33.60;50.70;32.30;97510.00;;;;5039221;28;20228;-84
2023/09/05 14:03:47;;;;;;;2.33;2.13;;;32.30;51.20;30.90;97502.00;;;;5031196;28;20197;-85
2023/09/05 14:06:36;;;;;;;2.78;2.03;;;31.00;62.60;31.80;97498.00;;;;5034741;28;20220;-84
2023/09/05 14:09:26;;;;;;;5.03;3.85;;;30.20;63.40;32.80;97509.00;;;;5039039;28;20197;-84